sensor_id;sensor_type;location;lat;lon;timestamp;temperature;humidity
32877;DHT22;19226;51.600;8.034;2024-03-08T00:01:59;3.50;99.90
32877;DHT22;19226;51.600;8.034;2024-03-08T00:04:44;3.50;99.90
32877;DHT22;19226;51.600;8.034;2024-03-08T00:07:29;3.50;99.90
32877;DHT22;19226;51.600;8.034;2024-03-08T00:10:13;3.40;99.90
32877;DHT22;19226;51.600;8.034;2024-03-08T00:12:58;3.40;99.90
32877;DHT22;19226;51.600;8.034;2024-03-08T00:15:42;3.40;99.90
32877;DHT22;19226;51.600;8.034;2024-03-08T00:18:27;3.40;99.90
32877;DHT22;19226;51.600;8.034;2024-03-08T00:21:12;3.40;99.90
32877;DHT22;19226;51.600;8.034;2024-03-08T00:23:56;3.40;99.90
32877;DHT22;19226;51.600;8.034;2024-03-08T00:26:41;3.40;99.90
32877;DHT22;19226;51.600;8.034;2024-03-08T00:29:27;3.40;99.90
32877;DHT22;19226;51.600;8.034;2024-03-08T00:32:12;3.40;99.90
32877;DHT22;19226;51.600;8.034;2024-03-08T00:34:57;3.30;99.90
32877;DHT22;19226;51.600;8.034;2024-03-08T00:37:42;3.30;99.90
32877;DHT22;19226;51.600;8.034;2024-03-08T00:40:26;3.30;99.90
32877;DHT22;19226;51.600;8.034;2024-03-08T00:43:11;3.20;99.90
32877;DHT22;19226;51.600;8.034;2024-03-08T00:45:56;3.20;99.90
32877;DHT22;19226;51.600;8.034;2024-03-08T00:48:42;3.20;99.90
32877;DHT22;19226;51.600;8.034;2024-03-08T00:51:27;3.20;99.90
32877;DHT22;19226;51.600;8.034;2024-03-08T00:54:12;3.20;99.90
32877;DHT22;19226;51.600;8.034;2024-03-08T00:56:56;3.10;99.90
32877;DHT22;19226;51.600;8.034;2024-03-08T00:59:41;3.10;99.90
32877;DHT22;19226;51.600;8.034;2024-03-08T01:02:26;3.10;99.90
32877;DHT22;19226;51.600;8.034;2024-03-08T01:05:10;3.10;99.90
32877;DHT22;19226;51.600;8.034;2024-03-08T01:07:55;3.10;99.90
32877;DHT22;19226;51.600;8.034;2024-03-08T01:10:39;3.10;99.90
32877;DHT22;19226;51.600;8.034;2024-03-08T01:13:24;3.10;99.90
32877;DHT22;19226;51.600;8.034;2024-03-08T01:16:08;3.10;99.90
32877;DHT22;19226;51.600;8.034;2024-03-08T01:18:54;3.10;99.90
32877;DHT22;19226;51.600;8.034;2024-03-08T01:21:39;3.10;99.90
32877;DHT22;19226;51.600;8.034;2024-03-08T01:24:26;3.00;99.90
32877;DHT22;19226;51.600;8.034;2024-03-08T01:27:10;3.00;99.90
32877;DHT22;19226;51.600;8.034;2024-03-08T01:29:57;3.00;99.90
32877;DHT22;19226;51.600;8.034;2024-03-08T01:32:43;3.00;99.90
32877;DHT22;19226;51.600;8.034;2024-03-08T01:35:28;2.90;99.90
32877;DHT22;19226;51.600;8.034;2024-03-08T01:38:12;2.80;99.90
32877;DHT22;19226;51.600;8.034;2024-03-08T01:40:57;2.80;99.90
32877;DHT22;19226;51.600;8.034;2024-03-08T01:43:41;2.70;99.90
32877;DHT22;19226;51.600;8.034;2024-03-08T01:46:26;2.70;99.90
32877;DHT22;19226;51.600;8.034;2024-03-08T01:49:13;2.60;99.90
32877;DHT22;19226;51.600;8.034;2024-03-08T01:51:58;2.60;99.90
32877;DHT22;19226;51.600;8.034;2024-03-08T01:54:45;2.60;99.90
32877;DHT22;19226;51.600;8.034;2024-03-08T01:57:31;2.50;99.90
32877;DHT22;19226;51.600;8.034;2024-03-08T02:00:19;2.50;99.90
32877;DHT22;19226;51.600;8.034;2024-03-08T02:03:05;2.50;99.90
32877;DHT22;19226;51.600;8.034;2024-03-08T02:05:49;2.50;99.90
32877;DHT22;19226;51.600;8.034;2024-03-08T02:08:36;2.50;99.90
32877;DHT22;19226;51.600;8.034;2024-03-08T02:11:21;2.40;99.90
32877;DHT22;19226;51.600;8.034;2024-03-08T02:14:05;2.40;99.90
32877;DHT22;19226;51.600;8.034;2024-03-08T02:16:50;2.30;99.90
32877;DHT22;19226;51.600;8.034;2024-03-08T02:19:35;2.40;99.90
32877;DHT22;19226;51.600;8.034;2024-03-08T02:22:20;2.30;99.90
32877;DHT22;19226;51.600;8.034;2024-03-08T02:25:06;2.40;99.90
32877;DHT22;19226;51.600;8.034;2024-03-08T02:27:50;2.30;99.90
32877;DHT22;19226;51.600;8.034;2024-03-08T02:30:37;2.30;99.90
32877;DHT22;19226;51.600;8.034;2024-03-08T02:33:23;2.30;99.90
32877;DHT22;19226;51.600;8.034;2024-03-08T02:36:08;2.20;99.90
32877;DHT22;19226;51.600;8.034;2024-03-08T02:38:53;2.20;99.90
32877;DHT22;19226;51.600;8.034;2024-03-08T02:41:39;2.20;99.90
32877;DHT22;19226;51.600;8.034;2024-03-08T02:44:23;2.20;99.90
32877;DHT22;19226;51.600;8.034;2024-03-08T02:47:08;2.20;99.90
32877;DHT22;19226;51.600;8.034;2024-03-08T02:49:53;2.20;99.90
32877;DHT22;19226;51.600;8.034;2024-03-08T02:52:38;2.20;99.90
32877;DHT22;19226;51.600;8.034;2024-03-08T02:55:23;2.20;99.90
32877;DHT22;19226;51.600;8.034;2024-03-08T02:58:10;2.10;99.90
32877;DHT22;19226;51.600;8.034;2024-03-08T03:00:54;2.10;99.90
32877;DHT22;19226;51.600;8.034;2024-03-08T03:03:41;2.10;99.90
32877;DHT22;19226;51.600;8.034;2024-03-08T03:06:27;2.10;99.90
32877;DHT22;19226;51.600;8.034;2024-03-08T03:09:11;2.10;99.90
32877;DHT22;19226;51.600;8.034;2024-03-08T03:11:56;2.10;99.90
32877;DHT22;19226;51.600;8.034;2024-03-08T03:14:40;2.10;99.90
32877;DHT22;19226;51.600;8.034;2024-03-08T03:17:26;2.10;99.90
32877;DHT22;19226;51.600;8.034;2024-03-08T03:20:10;2.10;99.90
32877;DHT22;19226;51.600;8.034;2024-03-08T03:22:57;2.00;99.90
32877;DHT22;19226;51.600;8.034;2024-03-08T03:25:41;2.00;99.90
32877;DHT22;19226;51.600;8.034;2024-03-08T03:28:26;2.00;99.90
32877;DHT22;19226;51.600;8.034;2024-03-08T03:31:12;2.00;99.90
32877;DHT22;19226;51.600;8.034;2024-03-08T03:33:58;2.00;99.90
32877;DHT22;19226;51.600;8.034;2024-03-08T03:36:45;2.00;99.90
32877;DHT22;19226;51.600;8.034;2024-03-08T03:39:31;2.00;99.90
32877;DHT22;19226;51.600;8.034;2024-03-08T03:42:16;1.90;99.90
32877;DHT22;19226;51.600;8.034;2024-03-08T03:45:00;2.00;99.90
32877;DHT22;19226;51.600;8.034;2024-03-08T03:47:46;1.90;99.90
32877;DHT22;19226;51.600;8.034;2024-03-08T03:50:31;1.90;99.90
32877;DHT22;19226;51.600;8.034;2024-03-08T03:53:18;1.90;99.90
32877;DHT22;19226;51.600;8.034;2024-03-08T03:56:03;1.90;99.90
32877;DHT22;19226;51.600;8.034;2024-03-08T03:58:51;1.90;99.90
32877;DHT22;19226;51.600;8.034;2024-03-08T04:01:35;1.90;99.90
32877;DHT22;19226;51.600;8.034;2024-03-08T04:04:20;1.90;99.90
32877;DHT22;19226;51.600;8.034;2024-03-08T04:07:05;1.90;99.90
32877;DHT22;19226;51.600;8.034;2024-03-08T04:09:50;1.90;99.90
32877;DHT22;19226;51.600;8.034;2024-03-08T04:12:35;1.90;99.90
32877;DHT22;19226;51.600;8.034;2024-03-08T04:15:20;1.90;99.90
32877;DHT22;19226;51.600;8.034;2024-03-08T04:18:04;1.90;99.90
32877;DHT22;19226;51.600;8.034;2024-03-08T04:20:49;1.90;99.90
32877;DHT22;19226;51.600;8.034;2024-03-08T04:23:34;1.90;99.90
32877;DHT22;19226;51.600;8.034;2024-03-08T04:26:21;1.90;99.90
32877;DHT22;19226;51.600;8.034;2024-03-08T04:29:05;1.90;99.90
32877;DHT22;19226;51.600;8.034;2024-03-08T04:31:51;1.90;99.90
32877;DHT22;19226;51.600;8.034;2024-03-08T04:34:38;1.90;99.90
32877;DHT22;19226;51.600;8.034;2024-03-08T04:37:23;1.90;99.90
32877;DHT22;19226;51.600;8.034;2024-03-08T04:40:08;1.90;99.90
32877;DHT22;19226;51.600;8.034;2024-03-08T04:42:52;1.90;99.90
32877;DHT22;19226;51.600;8.034;2024-03-08T04:45:37;1.90;99.90
32877;DHT22;19226;51.600;8.034;2024-03-08T04:48:23;1.90;99.90
32877;DHT22;19226;51.600;8.034;2024-03-08T04:51:08;1.90;99.90
32877;DHT22;19226;51.600;8.034;2024-03-08T04:53:52;1.90;99.90
32877;DHT22;19226;51.600;8.034;2024-03-08T04:56:37;1.90;99.90
32877;DHT22;19226;51.600;8.034;2024-03-08T04:59:22;1.90;99.90
32877;DHT22;19226;51.600;8.034;2024-03-08T05:02:06;1.80;99.90
32877;DHT22;19226;51.600;8.034;2024-03-08T05:04:51;1.80;99.90
32877;DHT22;19226;51.600;8.034;2024-03-08T05:07:36;1.80;99.90
32877;DHT22;19226;51.600;8.034;2024-03-08T05:10:20;1.80;99.90
32877;DHT22;19226;51.600;8.034;2024-03-08T05:13:06;1.80;99.90
32877;DHT22;19226;51.600;8.034;2024-03-08T05:15:50;1.80;99.90
32877;DHT22;19226;51.600;8.034;2024-03-08T05:18:35;1.80;99.90
32877;DHT22;19226;51.600;8.034;2024-03-08T05:21:20;1.80;99.90
32877;DHT22;19226;51.600;8.034;2024-03-08T05:24:04;1.80;99.90
32877;DHT22;19226;51.600;8.034;2024-03-08T05:26:49;1.80;99.90
32877;DHT22;19226;51.600;8.034;2024-03-08T05:29:34;1.80;99.90
32877;DHT22;19226;51.600;8.034;2024-03-08T05:32:19;1.80;99.90
32877;DHT22;19226;51.600;8.034;2024-03-08T05:35:04;1.80;99.90
32877;DHT22;19226;51.600;8.034;2024-03-08T05:37:51;1.80;99.90
32877;DHT22;19226;51.600;8.034;2024-03-08T05:40:36;1.70;99.90
32877;DHT22;19226;51.600;8.034;2024-03-08T05:43:20;1.70;99.90
32877;DHT22;19226;51.600;8.034;2024-03-08T05:46:05;1.70;99.90
32877;DHT22;19226;51.600;8.034;2024-03-08T05:48:49;1.80;99.90
32877;DHT22;19226;51.600;8.034;2024-03-08T05:51:36;1.80;99.90
32877;DHT22;19226;51.600;8.034;2024-03-08T05:54:20;1.70;99.90
32877;DHT22;19226;51.600;8.034;2024-03-08T05:57:08;1.70;99.90
32877;DHT22;19226;51.600;8.034;2024-03-08T05:59:53;1.70;99.90
32877;DHT22;19226;51.600;8.034;2024-03-08T06:02:38;1.70;99.90
32877;DHT22;19226;51.600;8.034;2024-03-08T06:05:25;1.70;99.90
32877;DHT22;19226;51.600;8.034;2024-03-08T06:08:09;1.80;99.90
32877;DHT22;19226;51.600;8.034;2024-03-08T06:10:54;1.70;99.90
32877;DHT22;19226;51.600;8.034;2024-03-08T06:13:38;1.70;99.90
32877;DHT22;19226;51.600;8.034;2024-03-08T06:16:22;1.70;99.90
32877;DHT22;19226;51.600;8.034;2024-03-08T06:19:07;1.70;99.90
32877;DHT22;19226;51.600;8.034;2024-03-08T06:21:51;1.70;99.90
32877;DHT22;19226;51.600;8.034;2024-03-08T06:24:36;1.70;99.90
32877;DHT22;19226;51.600;8.034;2024-03-08T06:27:22;1.70;99.90
32877;DHT22;19226;51.600;8.034;2024-03-08T06:30:07;1.70;99.90
32877;DHT22;19226;51.600;8.034;2024-03-08T06:32:53;1.60;99.90
32877;DHT22;19226;51.600;8.034;2024-03-08T06:35:38;1.70;99.90
32877;DHT22;19226;51.600;8.034;2024-03-08T06:38:25;1.60;99.90
32877;DHT22;19226;51.600;8.034;2024-03-08T06:41:10;1.70;99.90
32877;DHT22;19226;51.600;8.034;2024-03-08T06:43:59;1.60;99.90
32877;DHT22;19226;51.600;8.034;2024-03-08T06:46:44;1.70;99.90
32877;DHT22;19226;51.600;8.034;2024-03-08T06:49:29;1.70;99.90
32877;DHT22;19226;51.600;8.034;2024-03-08T06:52:14;1.70;99.90
32877;DHT22;19226;51.600;8.034;2024-03-08T06:54:58;1.70;99.90
32877;DHT22;19226;51.600;8.034;2024-03-08T06:57:45;1.70;99.90
32877;DHT22;19226;51.600;8.034;2024-03-08T07:00:30;1.80;99.90
32877;DHT22;19226;51.600;8.034;2024-03-08T07:03:15;1.80;99.90
32877;DHT22;19226;51.600;8.034;2024-03-08T07:06:01;1.90;99.90
32877;DHT22;19226;51.600;8.034;2024-03-08T07:08:46;1.90;99.90
32877;DHT22;19226;51.600;8.034;2024-03-08T07:11:31;1.90;99.90
32877;DHT22;19226;51.600;8.034;2024-03-08T07:14:15;2.00;99.90
32877;DHT22;19226;51.600;8.034;2024-03-08T07:17:00;2.00;99.90
32877;DHT22;19226;51.600;8.034;2024-03-08T07:19:44;2.00;99.90
32877;DHT22;19226;51.600;8.034;2024-03-08T07:22:29;2.10;99.90
32877;DHT22;19226;51.600;8.034;2024-03-08T07:25:14;2.10;99.90
32877;DHT22;19226;51.600;8.034;2024-03-08T07:28:13;2.20;99.90
32877;DHT22;19226;51.600;8.034;2024-03-08T07:30:59;2.20;99.90
32877;DHT22;19226;51.600;8.034;2024-03-08T07:34:11;2.30;99.90
32877;DHT22;19226;51.600;8.034;2024-03-08T07:36:56;2.40;99.90
32877;DHT22;19226;51.600;8.034;2024-03-08T07:39:41;2.50;99.90
32877;DHT22;19226;51.600;8.034;2024-03-08T07:42:26;2.50;99.90
32877;DHT22;19226;51.600;8.034;2024-03-08T07:45:11;2.60;99.90
32877;DHT22;19226;51.600;8.034;2024-03-08T07:47:57;2.70;99.90
32877;DHT22;19226;51.600;8.034;2024-03-08T07:50:41;2.80;99.90
32877;DHT22;19226;51.600;8.034;2024-03-08T07:53:26;2.90;99.90
32877;DHT22;19226;51.600;8.034;2024-03-08T07:56:10;2.90;99.90
32877;DHT22;19226;51.600;8.034;2024-03-08T07:58:57;3.00;99.90
32877;DHT22;19226;51.600;8.034;2024-03-08T08:01:41;3.10;99.90
32877;DHT22;19226;51.600;8.034;2024-03-08T08:04:26;3.10;99.90
32877;DHT22;19226;51.600;8.034;2024-03-08T08:07:11;3.20;99.90
32877;DHT22;19226;51.600;8.034;2024-03-08T08:09:56;3.30;99.90
32877;DHT22;19226;51.600;8.034;2024-03-08T08:12:40;3.50;99.90
32877;DHT22;19226;51.600;8.034;2024-03-08T08:15:26;3.60;99.90
32877;DHT22;19226;51.600;8.034;2024-03-08T08:18:12;3.60;99.90
32877;DHT22;19226;51.600;8.034;2024-03-08T08:20:58;3.80;99.90
32877;DHT22;19226;51.600;8.034;2024-03-08T08:23:44;3.80;99.90
32877;DHT22;19226;51.600;8.034;2024-03-08T08:26:29;3.90;99.90
32877;DHT22;19226;51.600;8.034;2024-03-08T08:29:14;4.00;99.90
32877;DHT22;19226;51.600;8.034;2024-03-08T08:31:59;4.10;99.90
32877;DHT22;19226;51.600;8.034;2024-03-08T08:34:44;4.20;99.90
32877;DHT22;19226;51.600;8.034;2024-03-08T08:37:28;4.30;99.90
32877;DHT22;19226;51.600;8.034;2024-03-08T08:40:13;4.40;99.90
32877;DHT22;19226;51.600;8.034;2024-03-08T08:43:02;4.50;99.90
32877;DHT22;19226;51.600;8.034;2024-03-08T08:45:50;4.60;99.90
32877;DHT22;19226;51.600;8.034;2024-03-08T08:48:37;4.60;99.90
32877;DHT22;19226;51.600;8.034;2024-03-08T08:51:22;4.70;99.90
32877;DHT22;19226;51.600;8.034;2024-03-08T08:54:07;4.80;99.90
32877;DHT22;19226;51.600;8.034;2024-03-08T08:56:51;4.80;99.90
32877;DHT22;19226;51.600;8.034;2024-03-08T08:59:36;4.90;99.90
32877;DHT22;19226;51.600;8.034;2024-03-08T09:02:23;5.00;99.90
32877;DHT22;19226;51.600;8.034;2024-03-08T09:05:10;5.00;99.90
32877;DHT22;19226;51.600;8.034;2024-03-08T09:07:55;5.10;99.90
32877;DHT22;19226;51.600;8.034;2024-03-08T09:10:39;5.20;99.90
32877;DHT22;19226;51.600;8.034;2024-03-08T09:13:24;5.30;99.90
32877;DHT22;19226;51.600;8.034;2024-03-08T09:16:08;5.40;99.90
32877;DHT22;19226;51.600;8.034;2024-03-08T09:18:54;5.50;99.90
32877;DHT22;19226;51.600;8.034;2024-03-08T09:21:39;5.70;99.90
32877;DHT22;19226;51.600;8.034;2024-03-08T09:24:26;5.80;99.90
32877;DHT22;19226;51.600;8.034;2024-03-08T09:27:11;5.80;99.90
32877;DHT22;19226;51.600;8.034;2024-03-08T09:29:56;5.90;99.90
32877;DHT22;19226;51.600;8.034;2024-03-08T09:32:41;6.00;99.90
32877;DHT22;19226;51.600;8.034;2024-03-08T09:35:27;6.10;99.90
32877;DHT22;19226;51.600;8.034;2024-03-08T09:38:12;6.20;99.90
32877;DHT22;19226;51.600;8.034;2024-03-08T09:40:57;6.30;99.90
32877;DHT22;19226;51.600;8.034;2024-03-08T09:43:42;6.50;99.90
32877;DHT22;19226;51.600;8.034;2024-03-08T09:46:27;6.60;99.90
32877;DHT22;19226;51.600;8.034;2024-03-08T09:49:11;6.70;99.90
32877;DHT22;19226;51.600;8.034;2024-03-08T09:51:56;6.80;99.90
32877;DHT22;19226;51.600;8.034;2024-03-08T09:54:40;7.00;99.90
32877;DHT22;19226;51.600;8.034;2024-03-08T09:57:28;7.10;99.90
32877;DHT22;19226;51.600;8.034;2024-03-08T10:00:13;7.20;99.90
32877;DHT22;19226;51.600;8.034;2024-03-08T10:03:08;7.30;99.90
32877;DHT22;19226;51.600;8.034;2024-03-08T10:05:53;7.40;99.90
32877;DHT22;19226;51.600;8.034;2024-03-08T10:08:40;7.50;99.90
32877;DHT22;19226;51.600;8.034;2024-03-08T10:11:25;7.60;99.90
32877;DHT22;19226;51.600;8.034;2024-03-08T10:14:11;7.70;99.90
32877;DHT22;19226;51.600;8.034;2024-03-08T10:16:57;7.90;99.90
32877;DHT22;19226;51.600;8.034;2024-03-08T10:19:51;8.00;99.90
32877;DHT22;19226;51.600;8.034;2024-03-08T10:22:39;8.10;99.90
32877;DHT22;19226;51.600;8.034;2024-03-08T10:25:24;8.10;99.90
32877;DHT22;19226;51.600;8.034;2024-03-08T10:28:08;8.30;99.90
32877;DHT22;19226;51.600;8.034;2024-03-08T10:30:54;8.40;99.90
32877;DHT22;19226;51.600;8.034;2024-03-08T10:33:39;8.50;99.90
32877;DHT22;19226;51.600;8.034;2024-03-08T10:36:26;8.70;99.90
32877;DHT22;19226;51.600;8.034;2024-03-08T10:39:22;8.80;99.90
32877;DHT22;19226;51.600;8.034;2024-03-08T10:42:11;8.90;99.90
32877;DHT22;19226;51.600;8.034;2024-03-08T10:45:38;9.10;99.90
32877;DHT22;19226;51.600;8.034;2024-03-08T10:48:31;9.10;99.90
32877;DHT22;19226;51.600;8.034;2024-03-08T10:51:16;9.20;99.90
32877;DHT22;19226;51.600;8.034;2024-03-08T10:54:03;9.30;99.90
32877;DHT22;19226;51.600;8.034;2024-03-08T10:56:49;9.40;99.90
32877;DHT22;19226;51.600;8.034;2024-03-08T10:59:35;9.40;99.90
32877;DHT22;19226;51.600;8.034;2024-03-08T11:02:20;9.50;99.90
32877;DHT22;19226;51.600;8.034;2024-03-08T11:05:05;9.60;99.90
32877;DHT22;19226;51.600;8.034;2024-03-08T11:07:57;9.60;99.90
32877;DHT22;19226;51.600;8.034;2024-03-08T11:10:54;9.70;99.90
32877;DHT22;19226;51.600;8.034;2024-03-08T11:13:41;9.70;99.90
32877;DHT22;19226;51.600;8.034;2024-03-08T11:19:30;9.80;99.90
32877;DHT22;19226;51.600;8.034;2024-03-08T11:22:23;9.90;99.90
32877;DHT22;19226;51.600;8.034;2024-03-08T11:25:31;10.00;99.90
32877;DHT22;19226;51.600;8.034;2024-03-08T11:28:20;10.10;99.90
32877;DHT22;19226;51.600;8.034;2024-03-08T11:33:53;10.20;99.90
32877;DHT22;19226;51.600;8.034;2024-03-08T11:36:38;10.20;99.90
32877;DHT22;19226;51.600;8.034;2024-03-08T11:39:26;10.20;99.90
32877;DHT22;19226;51.600;8.034;2024-03-08T11:42:12;10.30;99.90
32877;DHT22;19226;51.600;8.034;2024-03-08T11:44:57;10.30;99.90
32877;DHT22;19226;51.600;8.034;2024-03-08T11:47:43;10.30;99.90
32877;DHT22;19226;51.600;8.034;2024-03-08T11:50:30;10.40;99.90
32877;DHT22;19226;51.600;8.034;2024-03-08T11:53:16;10.50;99.90
32877;DHT22;19226;51.600;8.034;2024-03-08T11:56:11;10.50;99.90
32877;DHT22;19226;51.600;8.034;2024-03-08T11:58:56;10.60;99.90
32877;DHT22;19226;51.600;8.034;2024-03-08T12:02:05;10.60;99.90
32877;DHT22;19226;51.600;8.034;2024-03-08T12:04:57;10.70;99.90
32877;DHT22;19226;51.600;8.034;2024-03-08T12:07:43;10.60;99.90
32877;DHT22;19226;51.600;8.034;2024-03-08T12:10:28;10.70;99.90
32877;DHT22;19226;51.600;8.034;2024-03-08T12:13:16;10.70;99.90
32877;DHT22;19226;51.600;8.034;2024-03-08T12:16:03;10.70;99.90
32877;DHT22;19226;51.600;8.034;2024-03-08T12:18:52;10.80;99.90
32877;DHT22;19226;51.600;8.034;2024-03-08T12:21:37;10.80;99.90
32877;DHT22;19226;51.600;8.034;2024-03-08T12:24:26;10.90;99.90
32877;DHT22;19226;51.600;8.034;2024-03-08T12:27:19;11.00;99.90
32877;DHT22;19226;51.600;8.034;2024-03-08T12:30:27;11.10;99.90
32877;DHT22;19226;51.600;8.034;2024-03-08T12:33:18;11.30;99.90
32877;DHT22;19226;51.600;8.034;2024-03-08T12:36:03;11.30;99.90
32877;DHT22;19226;51.600;8.034;2024-03-08T12:38:53;11.30;99.90
32877;DHT22;19226;51.600;8.034;2024-03-08T12:41:41;11.30;99.90
32877;DHT22;19226;51.600;8.034;2024-03-08T12:44:26;11.30;99.90
32877;DHT22;19226;51.600;8.034;2024-03-08T12:47:12;11.40;99.90
32877;DHT22;19226;51.600;8.034;2024-03-08T12:49:57;11.30;99.90
32877;DHT22;19226;51.600;8.034;2024-03-08T12:52:42;11.30;99.90
32877;DHT22;19226;51.600;8.034;2024-03-08T12:55:27;11.40;99.90
32877;DHT22;19226;51.600;8.034;2024-03-08T12:58:11;11.50;99.90
32877;DHT22;19226;51.600;8.034;2024-03-08T13:00:56;11.50;99.90
32877;DHT22;19226;51.600;8.034;2024-03-08T13:03:40;11.50;99.90
32877;DHT22;19226;51.600;8.034;2024-03-08T13:06:28;11.30;99.90
32877;DHT22;19226;51.600;8.034;2024-03-08T13:09:13;11.40;99.90
32877;DHT22;19226;51.600;8.034;2024-03-08T13:11:58;11.30;99.90
32877;DHT22;19226;51.600;8.034;2024-03-08T13:14:45;11.20;99.90
32877;DHT22;19226;51.600;8.034;2024-03-08T13:17:29;11.30;99.90
32877;DHT22;19226;51.600;8.034;2024-03-08T13:20:14;11.30;99.90
32877;DHT22;19226;51.600;8.034;2024-03-08T13:23:06;11.30;99.90
32877;DHT22;19226;51.600;8.034;2024-03-08T13:25:52;11.40;99.90
32877;DHT22;19226;51.600;8.034;2024-03-08T13:28:37;11.40;99.90
32877;DHT22;19226;51.600;8.034;2024-03-08T13:31:22;11.50;99.90
32877;DHT22;19226;51.600;8.034;2024-03-08T13:34:07;11.60;99.90
32877;DHT22;19226;51.600;8.034;2024-03-08T13:36:54;11.50;99.90
32877;DHT22;19226;51.600;8.034;2024-03-08T13:39:45;11.50;99.90
32877;DHT22;19226;51.600;8.034;2024-03-08T13:42:29;11.50;99.90
32877;DHT22;19226;51.600;8.034;2024-03-08T13:45:14;11.50;99.90
32877;DHT22;19226;51.600;8.034;2024-03-08T13:48:03;11.40;99.90
32877;DHT22;19226;51.600;8.034;2024-03-08T13:50:49;11.40;99.90
32877;DHT22;19226;51.600;8.034;2024-03-08T13:53:36;11.40;99.90
32877;DHT22;19226;51.600;8.034;2024-03-08T13:56:21;11.40;99.90
32877;DHT22;19226;51.600;8.034;2024-03-08T13:59:06;11.40;99.90
32877;DHT22;19226;51.600;8.034;2024-03-08T14:01:50;11.40;99.90
32877;DHT22;19226;51.600;8.034;2024-03-08T14:04:35;11.50;99.90
32877;DHT22;19226;51.600;8.034;2024-03-08T14:07:21;11.50;99.90
32877;DHT22;19226;51.600;8.034;2024-03-08T14:10:07;11.50;99.90
32877;DHT22;19226;51.600;8.034;2024-03-08T14:12:53;11.50;99.90
32877;DHT22;19226;51.600;8.034;2024-03-08T14:15:39;11.50;99.90
32877;DHT22;19226;51.600;8.034;2024-03-08T14:18:26;11.60;99.90
32877;DHT22;19226;51.600;8.034;2024-03-08T14:21:14;11.70;99.90
32877;DHT22;19226;51.600;8.034;2024-03-08T14:23:59;11.60;99.90
32877;DHT22;19226;51.600;8.034;2024-03-08T14:26:45;11.60;99.90
32877;DHT22;19226;51.600;8.034;2024-03-08T14:29:33;11.60;99.90
32877;DHT22;19226;51.600;8.034;2024-03-08T14:32:17;11.60;99.90
32877;DHT22;19226;51.600;8.034;2024-03-08T14:35:05;11.60;99.90
32877;DHT22;19226;51.600;8.034;2024-03-08T14:37:50;11.70;99.90
32877;DHT22;19226;51.600;8.034;2024-03-08T14:40:34;11.70;99.90
32877;DHT22;19226;51.600;8.034;2024-03-08T14:43:20;11.60;99.90
32877;DHT22;19226;51.600;8.034;2024-03-08T14:46:08;11.70;99.90
32877;DHT22;19226;51.600;8.034;2024-03-08T14:48:53;11.60;99.90
32877;DHT22;19226;51.600;8.034;2024-03-08T14:51:38;11.70;99.90
32877;DHT22;19226;51.600;8.034;2024-03-08T14:54:22;11.70;99.90
32877;DHT22;19226;51.600;8.034;2024-03-08T14:57:07;11.70;99.90
32877;DHT22;19226;51.600;8.034;2024-03-08T14:59:51;11.70;99.90
32877;DHT22;19226;51.600;8.034;2024-03-08T15:02:36;11.70;99.90
32877;DHT22;19226;51.600;8.034;2024-03-08T15:05:23;11.70;99.90
32877;DHT22;19226;51.600;8.034;2024-03-08T15:08:10;11.70;99.90
32877;DHT22;19226;51.600;8.034;2024-03-08T15:10:55;11.60;99.90
32877;DHT22;19226;51.600;8.034;2024-03-08T15:13:40;11.60;99.90
32877;DHT22;19226;51.600;8.034;2024-03-08T15:16:25;11.60;99.90
32877;DHT22;19226;51.600;8.034;2024-03-08T15:19:10;11.50;99.90
32877;DHT22;19226;51.600;8.034;2024-03-08T15:21:56;11.50;99.90
32877;DHT22;19226;51.600;8.034;2024-03-08T15:24:43;11.50;99.90
32877;DHT22;19226;51.600;8.034;2024-03-08T15:27:28;11.50;99.90
32877;DHT22;19226;51.600;8.034;2024-03-08T15:30:13;11.40;99.90
32877;DHT22;19226;51.600;8.034;2024-03-08T15:32:58;11.40;99.90
32877;DHT22;19226;51.600;8.034;2024-03-08T15:35:44;11.40;99.90
32877;DHT22;19226;51.600;8.034;2024-03-08T15:38:33;11.40;99.90
32877;DHT22;19226;51.600;8.034;2024-03-08T15:41:17;11.40;99.90
32877;DHT22;19226;51.600;8.034;2024-03-08T15:44:02;11.50;99.90
32877;DHT22;19226;51.600;8.034;2024-03-08T15:46:47;11.50;99.90
32877;DHT22;19226;51.600;8.034;2024-03-08T15:49:32;11.50;99.90
32877;DHT22;19226;51.600;8.034;2024-03-08T15:52:17;11.50;99.90
32877;DHT22;19226;51.600;8.034;2024-03-08T15:55:02;11.40;99.90
32877;DHT22;19226;51.600;8.034;2024-03-08T15:57:50;11.30;99.90
32877;DHT22;19226;51.600;8.034;2024-03-08T16:00:35;11.30;99.90
32877;DHT22;19226;51.600;8.034;2024-03-08T16:03:20;11.20;99.90
32877;DHT22;19226;51.600;8.034;2024-03-08T16:06:05;11.30;99.90
32877;DHT22;19226;51.600;8.034;2024-03-08T16:08:50;11.30;99.90
32877;DHT22;19226;51.600;8.034;2024-03-08T16:11:35;11.20;99.90
32877;DHT22;19226;51.600;8.034;2024-03-08T16:14:22;11.10;99.90
32877;DHT22;19226;51.600;8.034;2024-03-08T16:17:06;11.00;99.90
32877;DHT22;19226;51.600;8.034;2024-03-08T16:19:51;11.00;99.90
32877;DHT22;19226;51.600;8.034;2024-03-08T16:22:37;10.90;99.90
32877;DHT22;19226;51.600;8.034;2024-03-08T16:25:22;10.80;99.90
32877;DHT22;19226;51.600;8.034;2024-03-08T16:28:07;10.70;99.90
32877;DHT22;19226;51.600;8.034;2024-03-08T16:30:55;10.60;99.90
32877;DHT22;19226;51.600;8.034;2024-03-08T16:33:39;10.60;99.90
32877;DHT22;19226;51.600;8.034;2024-03-08T16:36:24;10.60;99.90
32877;DHT22;19226;51.600;8.034;2024-03-08T16:39:11;10.50;99.90
32877;DHT22;19226;51.600;8.034;2024-03-08T16:41:55;10.40;99.90
32877;DHT22;19226;51.600;8.034;2024-03-08T16:44:40;10.30;99.90
32877;DHT22;19226;51.600;8.034;2024-03-08T16:47:25;10.30;99.90
32877;DHT22;19226;51.600;8.034;2024-03-08T16:50:11;10.30;99.90
32877;DHT22;19226;51.600;8.034;2024-03-08T16:52:58;10.20;99.90
32877;DHT22;19226;51.600;8.034;2024-03-08T16:55:43;10.20;99.90
32877;DHT22;19226;51.600;8.034;2024-03-08T16:58:28;10.10;99.90
32877;DHT22;19226;51.600;8.034;2024-03-08T17:01:14;10.10;99.90
32877;DHT22;19226;51.600;8.034;2024-03-08T17:04:00;10.00;99.90
32877;DHT22;19226;51.600;8.034;2024-03-08T17:06:46;10.00;99.90
32877;DHT22;19226;51.600;8.034;2024-03-08T17:09:31;9.90;99.90
32877;DHT22;19226;51.600;8.034;2024-03-08T17:12:17;9.90;99.90
32877;DHT22;19226;51.600;8.034;2024-03-08T17:15:03;9.80;99.90
32877;DHT22;19226;51.600;8.034;2024-03-08T17:17:52;9.80;99.90
32877;DHT22;19226;51.600;8.034;2024-03-08T17:20:38;9.70;99.90
32877;DHT22;19226;51.600;8.034;2024-03-08T17:23:23;9.60;99.90
32877;DHT22;19226;51.600;8.034;2024-03-08T17:26:07;9.60;99.90
32877;DHT22;19226;51.600;8.034;2024-03-08T17:28:52;9.50;99.90
32877;DHT22;19226;51.600;8.034;2024-03-08T17:31:37;9.40;99.90
32877;DHT22;19226;51.600;8.034;2024-03-08T17:34:22;9.30;99.90
32877;DHT22;19226;51.600;8.034;2024-03-08T17:37:07;9.20;99.90
32877;DHT22;19226;51.600;8.034;2024-03-08T17:39:51;9.10;99.90
32877;DHT22;19226;51.600;8.034;2024-03-08T17:42:42;9.00;99.90
32877;DHT22;19226;51.600;8.034;2024-03-08T17:45:27;8.90;99.90